createdAt,value
2022-12-27T00:01:10.135Z,96504.28
2022-12-27T00:03:36.634Z,96506.44
2022-12-27T00:06:06.801Z,96512.91
2022-12-27T00:08:33.369Z,96516.38
2022-12-27T00:11:04.571Z,96516.25
2022-12-27T00:13:32.011Z,96526.41
2022-12-27T00:16:02.876Z,96530.97
2022-12-27T00:18:29.405Z,96527.63
2022-12-27T00:20:59.944Z,96526.31
2022-12-27T00:23:26.893Z,96521.50
2022-12-27T00:25:59.864Z,96527.16
2022-12-27T00:28:26.391Z,96531.81
2022-12-27T00:30:56.223Z,96523.78
2022-12-27T00:33:22.743Z,96524.25
2022-12-27T00:35:49.316Z,96528.59
2022-12-27T00:38:15.853Z,96534.34
2022-12-27T00:40:42.583Z,96538.91
2022-12-27T00:43:09.090Z,96547.28
2022-12-27T00:45:35.688Z,96562.97
2022-12-27T00:48:02.243Z,96549.53
2022-12-27T00:50:28.872Z,96552.28
2022-12-27T00:52:55.462Z,96550.97
2022-12-27T00:55:21.998Z,96548.78
2022-12-27T00:57:48.611Z,96550.91
2022-12-27T01:00:15.520Z,96557.00
2022-12-27T01:02:42.051Z,96556.25
2022-12-27T01:05:08.860Z,96567.97
2022-12-27T01:07:35.376Z,96560.00
2022-12-27T01:10:01.940Z,96554.47
2022-12-27T01:12:28.496Z,96561.75
2022-12-27T01:14:55.067Z,96567.25
2022-12-27T01:17:21.570Z,96559.88
2022-12-27T01:19:48.073Z,96570.03
2022-12-27T01:22:14.638Z,96570.91
2022-12-27T01:24:41.211Z,96571.63
2022-12-27T01:27:07.757Z,96570.91
2022-12-27T01:29:34.374Z,96572.78
2022-12-27T01:32:00.992Z,96582.81
2022-12-27T01:34:27.577Z,96572.06
2022-12-27T01:36:54.142Z,96581.66
2022-12-27T01:39:20.670Z,96582.72
2022-12-27T01:42:05.843Z,96592.28
2022-12-27T01:44:43.871Z,96595.31
2022-12-27T01:47:24.938Z,96595.19
2022-12-27T01:49:51.469Z,96593.88
2022-12-27T01:52:18.136Z,96593.88
2022-12-27T01:54:44.818Z,96602.22
2022-12-27T01:57:11.449Z,96608.78
2022-12-27T01:59:38.018Z,96607.94
2022-12-27T02:02:05.379Z,96609.41
2022-12-27T02:04:32.253Z,96604.75
2022-12-27T02:06:59.730Z,96616.47
2022-12-27T02:09:49.011Z,96609.13
2022-12-27T02:12:16.176Z,96609.44
2022-12-27T02:14:44.659Z,96608.00
2022-12-27T02:17:19.288Z,96612.31
2022-12-27T02:19:48.629Z,96623.63
2022-12-27T02:22:18.238Z,96619.88
2022-12-27T02:24:55.265Z,96624.97
2022-12-27T02:27:24.856Z,96625.19
2022-12-27T02:30:10.272Z,96642.81
2022-12-27T02:32:38.871Z,96645.38
2022-12-27T02:35:34.979Z,96642.88
2022-12-27T02:38:05.070Z,96635.81
2022-12-27T02:40:51.481Z,96647.44
2022-12-27T02:43:36.709Z,96651.19
2022-12-27T02:46:22.241Z,96653.78
2022-12-27T02:49:11.215Z,96658.41
2022-12-27T02:52:02.304Z,96669.66
2022-12-27T02:54:42.359Z,96679.88
2022-12-27T02:57:27.402Z,96674.06
2022-12-27T03:00:24.788Z,96679.22
2022-12-27T03:03:15.809Z,96680.59
2022-12-27T03:06:11.309Z,96678.81
2022-12-27T03:08:46.574Z,96673.34
2022-12-27T03:11:31.408Z,96668.91
2022-12-27T03:14:37.006Z,96673.97
2022-12-27T03:17:09.633Z,96668.81
2022-12-27T03:20:01.908Z,96670.09
2022-12-27T03:22:48.732Z,96667.25
2022-12-27T03:25:29.277Z,96682.03
2022-12-27T03:28:26.213Z,96690.88
2022-12-27T03:31:16.024Z,96703.06
2022-12-27T03:33:43.139Z,96702.44
2022-12-27T03:36:34.370Z,96712.84
2022-12-27T03:39:16.713Z,96705.25
2022-12-27T03:42:06.318Z,96697.56
2022-12-27T03:44:33.276Z,96698.09
2022-12-27T03:47:03.193Z,96693.78
2022-12-27T03:49:36.305Z,96699.34
2022-12-27T03:52:02.830Z,96706.38
2022-12-27T03:54:37.985Z,96697.13
2022-12-27T03:57:06.634Z,96698.72
2022-12-27T03:59:33.232Z,96695.88
2022-12-27T04:02:00.086Z,96696.69
2022-12-27T04:04:26.858Z,96706.44
2022-12-27T04:06:53.474Z,96704.38
2022-12-27T04:09:38.691Z,96722.19
2022-12-27T04:12:23.902Z,96716.16
2022-12-27T04:15:08.860Z,96724.88
2022-12-27T04:17:53.720Z,96735.28
2022-12-27T04:20:39.244Z,96733.03
2022-12-27T04:23:24.162Z,96734.94
2022-12-27T04:26:09.740Z,96732.22
2022-12-27T04:28:54.554Z,96726.88
2022-12-27T04:31:40.022Z,96745.16
2022-12-27T04:34:24.875Z,96743.69
2022-12-27T04:36:51.493Z,96748.78
2022-12-27T04:39:18.026Z,96746.66
2022-12-27T04:42:03.307Z,96753.38
2022-12-27T04:44:48.528Z,96742.72
2022-12-27T04:47:34.981Z,96744.94
2022-12-27T04:50:20.517Z,96756.88
2022-12-27T04:53:05.885Z,96750.69
2022-12-27T04:55:32.393Z,96755.88
2022-12-27T04:57:59.313Z,96763.28
2022-12-27T05:00:45.524Z,96769.56
2022-12-27T05:03:23.192Z,96779.59
2022-12-27T05:05:51.299Z,96780.97
2022-12-27T05:08:37.738Z,96788.69
2022-12-27T05:11:22.591Z,96787.09
2022-12-27T05:14:01.042Z,96784.94
2022-12-27T05:16:32.366Z,96791.88
2022-12-27T05:18:59.009Z,96799.66
2022-12-27T05:21:25.735Z,96788.34
2022-12-27T05:24:11.415Z,96797.31
2022-12-27T05:26:38.754Z,96809.41
2022-12-27T05:29:06.091Z,96814.38
2022-12-27T05:31:32.815Z,96821.69
2022-12-27T05:33:59.380Z,96828.16
2022-12-27T05:36:27.094Z,96831.16
2022-12-27T05:38:53.740Z,96837.56
2022-12-27T05:41:20.470Z,96838.53
2022-12-27T05:43:47.064Z,96836.56
2022-12-27T05:46:14.890Z,96847.16
2022-12-27T05:48:41.761Z,96836.66
2022-12-27T05:51:20.698Z,96833.84
2022-12-27T05:53:47.665Z,96847.25
2022-12-27T05:56:18.951Z,96837.56
2022-12-27T05:58:45.572Z,96848.28
2022-12-27T06:01:14.540Z,96843.28
2022-12-27T06:03:41.168Z,96849.03
2022-12-27T06:06:08.580Z,96852.69
2022-12-27T06:08:35.183Z,96849.97
2022-12-27T06:11:09.902Z,96872.16
2022-12-27T06:13:36.944Z,96876.38
2022-12-27T06:16:04.556Z,96876.75
2022-12-27T06:18:32.672Z,96881.06
2022-12-27T06:21:03.169Z,96873.75
2022-12-27T06:23:29.726Z,96877.72
2022-12-27T06:25:56.344Z,96883.75
2022-12-27T06:28:22.894Z,96876.75
2022-12-27T06:30:49.515Z,96876.28
2022-12-27T06:33:16.613Z,96885.34
2022-12-27T06:35:43.136Z,96878.03
2022-12-27T06:38:09.758Z,96875.34
2022-12-27T06:40:36.291Z,96883.28
2022-12-27T06:43:02.780Z,96881.31
2022-12-27T06:45:29.377Z,96887.50
2022-12-27T06:47:55.921Z,96891.72
2022-12-27T06:50:22.535Z,96903.31
2022-12-27T06:52:49.057Z,96910.94
2022-12-27T06:55:15.682Z,96914.03
2022-12-27T06:57:42.207Z,96907.69
2022-12-27T07:00:08.957Z,96919.63
2022-12-27T07:02:35.599Z,96934.09
2022-12-27T07:05:02.263Z,96938.75
2022-12-27T07:07:28.813Z,96930.03
2022-12-27T07:09:55.310Z,96937.00
2022-12-27T07:12:21.825Z,96920.53
2022-12-27T07:14:48.381Z,96918.09
2022-12-27T07:17:14.901Z,96938.81
2022-12-27T07:19:41.414Z,96935.63
2022-12-27T07:22:07.938Z,96940.13
2022-12-27T07:24:35.270Z,96939.81
2022-12-27T07:27:05.311Z,96941.50
2022-12-27T07:29:31.875Z,96951.81
2022-12-27T07:31:58.454Z,96940.94
2022-12-27T07:34:26.170Z,96948.56
2022-12-27T07:36:52.730Z,96946.50
2022-12-27T07:39:19.239Z,96946.31
2022-12-27T07:41:45.878Z,96953.25
2022-12-27T07:44:12.387Z,96946.09
2022-12-27T07:46:40.066Z,96947.69
2022-12-27T07:49:09.958Z,96930.81
2022-12-27T07:51:40.378Z,96932.63
2022-12-27T07:54:06.952Z,96946.94
2022-12-27T07:56:33.492Z,96957.25
2022-12-27T07:59:01.003Z,96974.00
2022-12-27T08:01:28.863Z,96981.47
2022-12-27T08:03:55.883Z,96972.91
2022-12-27T08:06:23.949Z,96974.16
2022-12-27T08:08:51.540Z,96984.75
2022-12-27T08:11:18.185Z,96985.38
2022-12-27T08:13:44.735Z,96980.88
2022-12-27T08:16:22.315Z,96976.06
2022-12-27T08:18:48.867Z,96993.19
2022-12-27T08:21:15.846Z,96975.09
2022-12-27T08:23:42.713Z,96978.25
2022-12-27T08:26:09.323Z,96976.22
2022-12-27T08:28:36.231Z,96967.03
2022-12-27T08:31:05.520Z,96971.06
2022-12-27T08:33:32.075Z,96963.16
2022-12-27T08:35:58.753Z,96965.75
2022-12-27T08:38:25.293Z,96973.53
2022-12-27T08:40:51.871Z,96970.56
2022-12-27T08:43:18.548Z,96967.94
2022-12-27T08:45:45.154Z,96982.59
2022-12-27T08:48:11.837Z,96997.06
2022-12-27T08:50:38.481Z,97003.03
2022-12-27T08:53:06.159Z,97004.75
2022-12-27T08:55:33.374Z,97027.25
2022-12-27T08:58:01.286Z,97021.31
2022-12-27T09:00:28.420Z,97029.25
2022-12-27T09:02:55.230Z,97030.03
2022-12-27T09:05:24.016Z,97023.28
2022-12-27T09:07:50.941Z,97012.81
2022-12-27T09:10:17.943Z,96990.94
2022-12-27T09:12:45.983Z,97001.03
2022-12-27T09:15:12.901Z,96995.63
2022-12-27T09:17:39.624Z,97004.84
2022-12-27T09:20:06.483Z,97008.22
2022-12-27T09:22:33.018Z,97004.50
2022-12-27T09:24:59.637Z,97006.59
2022-12-27T09:27:26.270Z,97010.09
2022-12-27T09:29:52.826Z,97002.28
2022-12-27T09:32:19.367Z,97001.28
2022-12-27T09:34:46.108Z,97003.69
2022-12-27T09:37:12.739Z,96998.25
2022-12-27T09:39:39.327Z,96991.41
2022-12-27T09:42:47.668Z,96984.97
2022-12-27T09:45:04.528Z,96972.44
2022-12-27T09:47:43.328Z,96989.47
2022-12-27T09:50:19.338Z,96987.66
2022-12-27T09:52:57.052Z,96960.81
2022-12-27T09:55:30.015Z,96958.28
2022-12-27T09:58:04.583Z,96950.06
2022-12-27T10:00:35.299Z,96942.63
2022-12-27T10:03:04.952Z,96959.09
2022-12-27T10:05:33.830Z,96962.19
2022-12-27T10:08:18.933Z,96946.56
2022-12-27T10:11:03.981Z,96966.25
2022-12-27T10:13:33.416Z,96957.47
2022-12-27T10:16:18.339Z,96973.34
2022-12-27T10:18:58.303Z,96974.50
2022-12-27T10:21:26.257Z,96963.34
2022-12-27T10:23:55.713Z,96972.28
2022-12-27T10:26:22.598Z,96983.13
2022-12-27T10:28:57.321Z,96982.16
2022-12-27T10:31:25.140Z,96993.16
2022-12-27T10:33:52.252Z,96976.16
2022-12-27T10:36:29.413Z,96976.72
2022-12-27T10:38:56.899Z,96958.88
2022-12-27T10:41:36.364Z,96961.91
2022-12-27T10:44:03.297Z,96941.38
2022-12-27T10:46:33.318Z,96946.31
2022-12-27T10:49:22.593Z,96948.53
2022-12-27T10:51:50.068Z,96940.53
2022-12-27T10:54:20.790Z,96907.41
2022-12-27T10:56:47.702Z,96905.47
2022-12-27T10:59:15.171Z,96888.66
2022-12-27T11:01:42.038Z,96888.88
2022-12-27T11:04:09.581Z,96889.97
2022-12-27T11:06:38.858Z,96910.16
2022-12-27T11:09:26.802Z,96888.59
2022-12-27T11:12:16.202Z,96885.47
2022-12-27T11:15:01.611Z,96889.16
2022-12-27T11:17:33.059Z,96887.19
2022-12-27T11:20:19.127Z,96896.59
2022-12-27T11:22:50.991Z,96900.78
2022-12-27T11:25:17.617Z,96920.31
2022-12-27T11:27:46.821Z,96906.59
2022-12-27T11:30:45.972Z,96918.81
2022-12-27T11:33:19.614Z,96923.97
2022-12-27T11:35:50.795Z,96945.69
2022-12-27T11:38:25.256Z,96934.09
2022-12-27T11:41:01.383Z,96930.88
2022-12-27T11:43:30.629Z,96923.59
2022-12-27T11:45:57.934Z,96921.09
2022-12-27T11:48:29.293Z,96910.06
2022-12-27T11:51:12.863Z,96880.09
2022-12-27T11:53:42.215Z,96872.88
2022-12-27T11:56:29.546Z,96870.88
2022-12-27T11:58:56.093Z,96909.91
2022-12-27T12:01:49.115Z,96922.50
2022-12-27T12:04:35.851Z,96915.25
2022-12-27T12:07:11.829Z,96880.13
2022-12-27T12:09:47.291Z,96903.88
2022-12-27T12:12:19.690Z,96891.28
2022-12-27T12:14:46.261Z,96894.34
2022-12-27T12:17:41.191Z,96892.09
2022-12-27T12:20:08.097Z,96893.16
2022-12-27T12:22:34.623Z,96897.19
2022-12-27T12:25:19.957Z,96889.78
2022-12-27T12:27:58.591Z,96882.78
2022-12-27T12:30:27.459Z,96898.50
2022-12-27T12:33:01.339Z,96871.25
2022-12-27T12:35:44.134Z,96891.72
2022-12-27T12:38:12.891Z,96914.72
2022-12-27T12:40:39.421Z,96917.72
2022-12-27T12:43:21.864Z,96909.28
2022-12-27T12:46:00.457Z,96913.78
2022-12-27T12:48:41.776Z,96914.00
2022-12-27T12:51:24.971Z,96924.91
2022-12-27T12:54:02.712Z,96918.91
2022-12-27T12:56:43.398Z,96924.84
2022-12-27T12:59:28.536Z,96925.72
2022-12-27T13:02:18.227Z,96925.97
2022-12-27T13:04:44.933Z,96933.88
2022-12-27T13:07:21.812Z,96934.00
2022-12-27T13:10:00.408Z,96928.53
2022-12-27T13:12:52.874Z,96947.56
2022-12-27T13:15:28.856Z,96937.03
2022-12-27T13:18:01.392Z,96948.69
2022-12-27T13:20:33.893Z,96945.09
2022-12-27T13:23:09.264Z,96944.28
2022-12-27T13:25:50.262Z,96938.09
2022-12-27T13:28:49.332Z,96947.66
2022-12-27T13:31:34.610Z,96948.78
2022-12-27T13:34:19.953Z,96940.25
2022-12-27T13:37:09.651Z,96941.94
2022-12-27T13:39:41.831Z,96940.41
2022-12-27T13:42:37.456Z,96938.88
2022-12-27T13:45:18.744Z,96954.00
2022-12-27T13:47:57.682Z,96953.00
2022-12-27T13:50:39.418Z,96951.03
2022-12-27T13:53:05.985Z,96957.06
2022-12-27T13:55:38.005Z,96973.97
2022-12-27T13:58:16.461Z,96973.69
2022-12-27T14:01:01.772Z,96977.59
2022-12-27T14:03:46.595Z,96989.69
2022-12-27T14:06:31.943Z,96987.16
2022-12-27T14:09:07.594Z,96999.66
2022-12-27T14:11:44.305Z,97011.06
2022-12-27T14:14:12.705Z,97020.13
2022-12-27T14:17:11.570Z,97026.25
2022-12-27T14:19:38.201Z,97019.22
2022-12-27T14:22:07.534Z,97020.22
2022-12-27T14:24:54.382Z,97033.28
2022-12-27T14:27:32.946Z,97046.91
2022-12-27T14:30:02.585Z,97034.22
2022-12-27T14:32:47.651Z,97041.19
2022-12-27T14:35:33.493Z,97047.84
2022-12-27T14:38:23.103Z,97050.81
2022-12-27T14:40:58.897Z,97068.19
2022-12-27T14:43:25.475Z,97060.38
2022-12-27T14:45:58.260Z,97062.00
2022-12-27T14:48:28.859Z,97074.19
2022-12-27T14:51:01.427Z,97062.22
2022-12-27T14:53:27.993Z,97063.41
2022-12-27T14:56:00.743Z,97069.22
2022-12-27T14:58:27.307Z,97074.22
2022-12-27T15:00:53.889Z,97071.97
2022-12-27T15:03:41.364Z,97078.66
2022-12-27T15:06:14.333Z,97091.81
2022-12-27T15:08:49.823Z,97093.00
2022-12-27T15:11:19.378Z,97102.66
2022-12-27T15:13:54.873Z,97107.00
2022-12-27T15:16:34.358Z,97107.00
2022-12-27T15:19:10.089Z,97106.63
2022-12-27T15:21:41.445Z,97110.84
2022-12-27T15:24:11.528Z,97128.16
2022-12-27T15:26:51.483Z,97126.81
2022-12-27T15:29:21.101Z,97119.00
2022-12-27T15:31:57.347Z,97121.78
2022-12-27T15:34:40.028Z,97133.31
2022-12-27T15:37:07.088Z,97150.22
2022-12-27T15:39:33.613Z,97156.09
2022-12-27T15:42:36.314Z,97162.19
2022-12-27T15:45:22.877Z,97172.91
2022-12-27T15:48:08.016Z,97175.03
2022-12-27T15:50:34.503Z,97175.34
2022-12-27T15:53:07.385Z,97173.34
2022-12-27T15:55:52.504Z,97167.31
2022-12-27T15:58:19.054Z,97178.84
2022-12-27T16:00:46.453Z,97183.25
2022-12-27T16:03:28.326Z,97185.22
2022-12-27T16:05:55.211Z,97180.25
2022-12-27T16:08:26.672Z,97188.75
2022-12-27T16:10:54.048Z,97188.25
2022-12-27T16:13:20.818Z,97186.59
2022-12-27T16:15:52.213Z,97180.25
2022-12-27T16:18:18.955Z,97184.03
2022-12-27T16:21:02.733Z,97171.50
2022-12-27T16:24:01.923Z,97173.28
2022-12-27T16:26:30.336Z,97180.50
2022-12-27T16:29:01.893Z,97185.47
2022-12-27T16:31:29.931Z,97188.41
2022-12-27T16:33:58.111Z,97183.25
2022-12-27T16:36:27.658Z,97187.91
2022-12-27T16:39:12.305Z,97187.19
2022-12-27T16:41:54.260Z,97184.00
2022-12-27T16:44:24.054Z,97184.09
2022-12-27T16:46:56.760Z,97193.81
2022-12-27T16:49:26.368Z,97197.19
2022-12-27T16:52:07.226Z,97198.78
2022-12-27T16:54:36.906Z,97202.91
2022-12-27T16:57:36.012Z,97208.19
2022-12-27T17:00:05.680Z,97206.50
2022-12-27T17:02:32.578Z,97206.94
2022-12-27T17:05:01.025Z,97208.53
2022-12-27T17:07:47.013Z,97223.50
2022-12-27T17:10:25.789Z,97227.28
2022-12-27T17:12:54.017Z,97235.50
2022-12-27T17:15:21.144Z,97237.81
2022-12-27T17:17:50.669Z,97242.00
2022-12-27T17:20:18.468Z,97244.00
2022-12-27T17:22:45.215Z,97245.28
2022-12-27T17:25:16.185Z,97250.50
2022-12-27T17:27:51.469Z,97243.09
2022-12-27T17:30:21.802Z,97257.50
2022-12-27T17:32:54.262Z,97253.72
2022-12-27T17:35:34.744Z,97257.28
2022-12-27T17:38:01.273Z,97256.31
2022-12-27T17:40:27.808Z,97264.81
2022-12-27T17:43:19.593Z,97261.53
2022-12-27T17:45:49.102Z,97257.81
2022-12-27T17:48:15.699Z,97273.03
2022-12-27T17:50:44.434Z,97268.56
2022-12-27T17:53:29.586Z,97275.53
2022-12-27T17:56:19.313Z,97278.25
2022-12-27T17:58:46.200Z,97281.63
2022-12-27T18:01:13.239Z,97287.09
2022-12-27T18:03:42.994Z,97293.09
2022-12-27T18:06:09.735Z,97292.16
2022-12-27T18:08:37.039Z,97301.09
2022-12-27T18:11:05.357Z,97303.91
2022-12-27T18:13:33.652Z,97307.38
2022-12-27T18:16:04.546Z,97312.00
2022-12-27T18:18:33.302Z,97321.88
2022-12-27T18:21:04.721Z,97324.13
2022-12-27T18:23:40.774Z,97335.19
2022-12-27T18:26:13.411Z,97332.66
2022-12-27T18:28:40.978Z,97331.78
2022-12-27T18:31:26.400Z,97332.28
2022-12-27T18:33:58.110Z,97340.25
2022-12-27T18:36:29.357Z,97342.88
2022-12-27T18:38:58.619Z,97341.44
2022-12-27T18:41:26.019Z,97340.63
2022-12-27T18:43:57.834Z,97347.00
2022-12-27T18:46:32.476Z,97340.81
2022-12-27T18:48:59.705Z,97344.25
2022-12-27T18:51:37.140Z,97350.06
2022-12-27T18:54:21.068Z,97356.97
2022-12-27T18:56:50.572Z,97356.22
2022-12-27T18:59:28.884Z,97359.44
2022-12-27T19:02:02.893Z,97365.72
2022-12-27T19:04:30.981Z,97369.28
2022-12-27T19:07:09.236Z,97360.81
2022-12-27T19:09:42.935Z,97367.38
2022-12-27T19:12:21.410Z,97366.03
2022-12-27T19:14:48.057Z,97367.09
2022-12-27T19:17:22.897Z,97370.59
2022-12-27T19:19:51.481Z,97366.88
2022-12-27T19:22:33.788Z,97362.63
2022-12-27T19:25:01.793Z,97362.41
2022-12-27T19:27:28.415Z,97364.34
2022-12-27T19:29:54.973Z,97371.91
2022-12-27T19:32:23.070Z,97363.75
2022-12-27T19:34:51.700Z,97367.38
2022-12-27T19:37:19.222Z,97369.28
2022-12-27T19:39:46.898Z,97375.63
2022-12-27T19:42:21.611Z,97371.13
2022-12-27T19:44:48.858Z,97365.13
2022-12-27T19:47:15.826Z,97373.84
2022-12-27T19:49:44.232Z,97372.91
2022-12-27T19:52:15.788Z,97376.31
2022-12-27T19:54:42.715Z,97369.09
2022-12-27T19:57:11.777Z,97368.34
2022-12-27T19:59:38.819Z,97368.44
2022-12-27T20:02:05.748Z,97360.72
2022-12-27T20:04:32.987Z,97359.53
2022-12-27T20:07:00.237Z,97358.84
2022-12-27T20:09:26.828Z,97360.63
2022-12-27T20:11:53.418Z,97360.63
2022-12-27T20:14:20.024Z,97362.16
2022-12-27T20:16:47.222Z,97357.66
2022-12-27T20:19:16.425Z,97361.91
2022-12-27T20:21:43.046Z,97354.94
2022-12-27T20:24:12.978Z,97354.09
2022-12-27T20:26:39.661Z,97357.25
2022-12-27T20:29:06.256Z,97361.97
2022-12-27T20:31:33.044Z,97357.84
2022-12-27T20:33:59.657Z,97364.00
2022-12-27T20:36:26.303Z,97362.22
2022-12-27T20:38:52.975Z,97358.59
2022-12-27T20:41:20.461Z,97356.91
2022-12-27T20:43:47.263Z,97356.81
2022-12-27T20:46:15.271Z,97350.78
2022-12-27T20:48:43.087Z,97348.03
2022-12-27T20:51:11.235Z,97350.13
2022-12-27T20:53:37.826Z,97346.72
2022-12-27T20:56:05.143Z,97346.72
2022-12-27T20:58:32.574Z,97354.69
2022-12-27T21:01:05.823Z,97348.66
2022-12-27T21:03:32.477Z,97351.22
2022-12-27T21:06:04.256Z,97359.84
2022-12-27T21:08:32.211Z,97358.00
2022-12-27T21:11:04.055Z,97356.97
2022-12-27T21:13:33.389Z,97356.13
2022-12-27T21:15:59.972Z,97351.81
2022-12-27T21:18:26.537Z,97354.44
2022-12-27T21:20:53.051Z,97357.31
2022-12-27T21:23:19.652Z,97361.75
2022-12-27T21:25:46.173Z,97360.13
2022-12-27T21:28:12.741Z,97354.00
2022-12-27T21:30:39.290Z,97355.88
2022-12-27T21:33:05.906Z,97350.63
2022-12-27T21:35:32.464Z,97345.38
2022-12-27T21:37:59.031Z,97355.97
2022-12-27T21:40:25.547Z,97353.41
2022-12-27T21:42:53.547Z,97346.47
2022-12-27T21:45:20.157Z,97355.09
2022-12-27T21:47:46.727Z,97349.84
2022-12-27T21:50:13.347Z,97351.81
2022-12-27T21:52:39.914Z,97345.69
2022-12-27T21:55:06.579Z,97347.81
2022-12-27T21:57:33.105Z,97352.41
2022-12-27T21:59:59.775Z,97353.94
2022-12-27T22:02:26.542Z,97348.50
2022-12-27T22:04:53.304Z,97347.63
2022-12-27T22:07:19.909Z,97348.50
2022-12-27T22:09:46.453Z,97353.75
2022-12-27T22:12:13.025Z,97349.44
2022-12-27T22:14:39.769Z,97347.50
2022-12-27T22:17:06.450Z,97346.63
2022-12-27T22:19:33.074Z,97343.25
2022-12-27T22:21:59.670Z,97348.50
2022-12-27T22:24:26.236Z,97338.94
2022-12-27T22:26:52.845Z,97341.72
2022-12-27T22:29:19.599Z,97338.31
2022-12-27T22:31:46.677Z,97344.59
2022-12-27T22:34:13.305Z,97336.78
2022-12-27T22:36:39.896Z,97338.50
2022-12-27T22:39:06.535Z,97336.66
2022-12-27T22:41:34.115Z,97328.91
2022-12-27T22:44:05.334Z,97334.94
2022-12-27T22:46:58.591Z,97331.53
2022-12-27T22:49:19.154Z,97337.66
2022-12-27T22:51:45.888Z,97336.03
2022-12-27T22:54:12.379Z,97329.09
2022-12-27T22:56:40.485Z,97332.63
2022-12-27T22:59:07.656Z,97334.16
2022-12-27T23:01:34.988Z,97327.25
2022-12-27T23:04:02.624Z,97326.56
2022-12-27T23:06:30.172Z,97322.50
2022-12-27T23:08:56.735Z,97320.78
2022-12-27T23:11:25.528Z,97318.25
2022-12-27T23:13:56.615Z,97316.47
2022-12-27T23:16:23.149Z,97311.22
2022-12-27T23:18:49.922Z,97307.84
2022-12-27T23:21:21.523Z,97307.16
2022-12-27T23:23:51.414Z,97308.16
2022-12-27T23:26:20.308Z,97306.63
2022-12-27T23:28:47.221Z,97300.94
2022-12-27T23:31:14.348Z,97293.25
2022-12-27T23:33:41.734Z,97296.09
2022-12-27T23:36:08.805Z,97291.03
2022-12-27T23:38:35.367Z,97284.06
2022-12-27T23:41:03.556Z,97298.28
2022-12-27T23:43:51.547Z,97290.75
2022-12-27T23:46:20.039Z,97287.25
2022-12-27T23:48:46.800Z,97290.97
2022-12-27T23:51:14.091Z,97288.59
2022-12-27T23:53:41.122Z,97284.38
2022-12-27T23:56:10.105Z,97283.66
2022-12-27T23:58:36.606Z,97290.53
